sensor_id;sensor_type;location;lat;lon;timestamp;P1;durP1;ratioP1;P2;durP2;ratioP2
22007;SDS011;11168;56.976;24.168;2023-06-22T00:01:46;12.05;;;10.82;;
22007;SDS011;11168;56.976;24.168;2023-06-22T00:04:13;13.43;;;11.55;;
22007;SDS011;11168;56.976;24.168;2023-06-22T00:06:40;13.88;;;11.10;;
22007;SDS011;11168;56.976;24.168;2023-06-22T00:09:07;12.15;;;10.90;;
22007;SDS011;11168;56.976;24.168;2023-06-22T00:11:37;13.45;;;11.30;;
22007;SDS011;11168;56.976;24.168;2023-06-22T00:14:04;12.80;;;11.43;;
22007;SDS011;11168;56.976;24.168;2023-06-22T00:16:32;12.52;;;11.23;;
22007;SDS011;11168;56.976;24.168;2023-06-22T00:18:59;12.57;;;11.27;;
22007;SDS011;11168;56.976;24.168;2023-06-22T00:21:29;14.38;;;11.27;;
22007;SDS011;11168;56.976;24.168;2023-06-22T00:23:57;12.38;;;10.95;;
22007;SDS011;11168;56.976;24.168;2023-06-22T00:26:24;13.30;;;11.38;;
22007;SDS011;11168;56.976;24.168;2023-06-22T00:28:51;13.77;;;11.30;;
22007;SDS011;11168;56.976;24.168;2023-06-22T00:31:18;15.18;;;12.32;;
22007;SDS011;11168;56.976;24.168;2023-06-22T00:33:45;14.85;;;11.27;;
22007;SDS011;11168;56.976;24.168;2023-06-22T00:36:12;12.68;;;11.00;;
22007;SDS011;11168;56.976;24.168;2023-06-22T00:41:10;15.40;;;11.05;;
22007;SDS011;11168;56.976;24.168;2023-06-22T00:43:37;13.88;;;12.00;;
22007;SDS011;11168;56.976;24.168;2023-06-22T00:46:04;12.63;;;11.38;;
22007;SDS011;11168;56.976;24.168;2023-06-22T00:48:32;13.57;;;12.27;;
22007;SDS011;11168;56.976;24.168;2023-06-22T00:50:59;12.55;;;11.25;;
22007;SDS011;11168;56.976;24.168;2023-06-22T00:53:27;17.27;;;12.60;;
22007;SDS011;11168;56.976;24.168;2023-06-22T00:55:54;13.68;;;12.30;;
22007;SDS011;11168;56.976;24.168;2023-06-22T00:58:21;13.13;;;11.75;;
22007;SDS011;11168;56.976;24.168;2023-06-22T01:00:48;14.18;;;11.82;;
22007;SDS011;11168;56.976;24.168;2023-06-22T01:03:17;16.20;;;12.20;;
22007;SDS011;11168;56.976;24.168;2023-06-22T01:05:47;13.23;;;11.93;;
22007;SDS011;11168;56.976;24.168;2023-06-22T01:08:33;13.30;;;11.98;;
22007;SDS011;11168;56.976;24.168;2023-06-22T01:11:13;13.93;;;12.43;;
22007;SDS011;11168;56.976;24.168;2023-06-22T01:18:57;14.30;;;12.65;;
22007;SDS011;11168;56.976;24.168;2023-06-22T01:21:28;13.43;;;12.10;;
22007;SDS011;11168;56.976;24.168;2023-06-22T01:24:10;14.10;;;12.73;;
22007;SDS011;11168;56.976;24.168;2023-06-22T01:29:52;14.77;;;12.50;;
22007;SDS011;11168;56.976;24.168;2023-06-22T01:32:31;14.10;;;12.60;;
22007;SDS011;11168;56.976;24.168;2023-06-22T01:35:01;14.60;;;13.10;;
22007;SDS011;11168;56.976;24.168;2023-06-22T01:37:30;16.27;;;12.75;;
22007;SDS011;11168;56.976;24.168;2023-06-22T01:39:59;13.95;;;12.45;;
22007;SDS011;11168;56.976;24.168;2023-06-22T01:42:27;16.00;;;13.00;;
22007;SDS011;11168;56.976;24.168;2023-06-22T01:44:55;15.68;;;12.98;;
22007;SDS011;11168;56.976;24.168;2023-06-22T01:47:23;14.18;;;12.68;;
22007;SDS011;11168;56.976;24.168;2023-06-22T01:49:51;14.75;;;12.70;;
22007;SDS011;11168;56.976;24.168;2023-06-22T01:52:19;14.13;;;12.10;;
22007;SDS011;11168;56.976;24.168;2023-06-22T01:54:49;14.05;;;11.93;;
22007;SDS011;11168;56.976;24.168;2023-06-22T01:57:16;17.17;;;12.52;;
22007;SDS011;11168;56.976;24.168;2023-06-22T02:02:11;14.95;;;12.52;;
22007;SDS011;11168;56.976;24.168;2023-06-22T02:04:48;16.75;;;13.13;;
22007;SDS011;11168;56.976;24.168;2023-06-22T02:07:19;16.08;;;13.55;;
22007;SDS011;11168;56.976;24.168;2023-06-22T02:09:48;14.07;;;12.75;;
22007;SDS011;11168;56.976;24.168;2023-06-22T02:12:21;18.70;;;13.75;;
22007;SDS011;11168;56.976;24.168;2023-06-22T02:14:50;14.40;;;12.93;;
22007;SDS011;11168;56.976;24.168;2023-06-22T02:17:18;15.80;;;13.50;;
22007;SDS011;11168;56.976;24.168;2023-06-22T02:19:45;17.23;;;13.43;;
22007;SDS011;11168;56.976;24.168;2023-06-22T02:22:12;18.23;;;14.07;;
22007;SDS011;11168;56.976;24.168;2023-06-22T02:24:40;14.85;;;12.75;;
22007;SDS011;11168;56.976;24.168;2023-06-22T02:27:07;15.63;;;12.70;;
22007;SDS011;11168;56.976;24.168;2023-06-22T02:29:34;20.23;;;13.73;;
22007;SDS011;11168;56.976;24.168;2023-06-22T02:32:01;15.65;;;14.05;;
22007;SDS011;11168;56.976;24.168;2023-06-22T02:34:28;16.60;;;13.95;;
22007;SDS011;11168;56.976;24.168;2023-06-22T02:36:55;15.10;;;13.57;;
22007;SDS011;11168;56.976;24.168;2023-06-22T02:39:22;15.43;;;13.82;;
22007;SDS011;11168;56.976;24.168;2023-06-22T02:41:51;15.52;;;13.50;;
22007;SDS011;11168;56.976;24.168;2023-06-22T02:44:19;15.10;;;13.60;;
22007;SDS011;11168;56.976;24.168;2023-06-22T02:46:47;15.80;;;14.00;;
22007;SDS011;11168;56.976;24.168;2023-06-22T02:49:14;16.13;;;13.93;;
22007;SDS011;11168;56.976;24.168;2023-06-22T02:51:44;16.70;;;14.88;;
22007;SDS011;11168;56.976;24.168;2023-06-22T02:54:12;16.35;;;14.63;;
22007;SDS011;11168;56.976;24.168;2023-06-22T02:56:40;18.90;;;14.02;;
22007;SDS011;11168;56.976;24.168;2023-06-22T02:59:07;19.02;;;15.05;;
22007;SDS011;11168;56.976;24.168;2023-06-22T03:01:34;18.17;;;14.82;;
22007;SDS011;11168;56.976;24.168;2023-06-22T03:04:07;16.15;;;14.50;;
22007;SDS011;11168;56.976;24.168;2023-06-22T03:06:34;20.60;;;15.88;;
22007;SDS011;11168;56.976;24.168;2023-06-22T03:09:03;18.80;;;15.20;;
22007;SDS011;11168;56.976;24.168;2023-06-22T03:11:31;17.15;;;14.88;;
22007;SDS011;11168;56.976;24.168;2023-06-22T03:14:02;18.95;;;15.18;;
22007;SDS011;11168;56.976;24.168;2023-06-22T03:16:29;20.35;;;16.00;;
22007;SDS011;11168;56.976;24.168;2023-06-22T03:18:56;18.50;;;15.55;;
22007;SDS011;11168;56.976;24.168;2023-06-22T03:21:23;17.95;;;15.93;;
22007;SDS011;11168;56.976;24.168;2023-06-22T03:23:55;18.95;;;16.23;;
22007;SDS011;11168;56.976;24.168;2023-06-22T03:26:22;19.83;;;15.50;;
22007;SDS011;11168;56.976;24.168;2023-06-22T03:28:50;18.48;;;16.13;;
22007;SDS011;11168;56.976;24.168;2023-06-22T03:31:17;17.77;;;16.00;;
22007;SDS011;11168;56.976;24.168;2023-06-22T03:36:16;17.73;;;15.82;;
22007;SDS011;11168;56.976;24.168;2023-06-22T03:38:46;17.60;;;15.65;;
22007;SDS011;11168;56.976;24.168;2023-06-22T03:41:14;19.02;;;17.13;;
22007;SDS011;11168;56.976;24.168;2023-06-22T03:43:42;18.33;;;16.42;;
22007;SDS011;11168;56.976;24.168;2023-06-22T03:46:09;24.20;;;16.60;;
22007;SDS011;11168;56.976;24.168;2023-06-22T03:48:37;19.13;;;17.10;;
22007;SDS011;11168;56.976;24.168;2023-06-22T03:51:04;20.58;;;16.80;;
22007;SDS011;11168;56.976;24.168;2023-06-22T03:53:31;19.25;;;16.88;;
22007;SDS011;11168;56.976;24.168;2023-06-22T03:55:58;19.70;;;17.58;;
22007;SDS011;11168;56.976;24.168;2023-06-22T03:58:26;24.58;;;17.60;;
22007;SDS011;11168;56.976;24.168;2023-06-22T04:00:53;20.40;;;17.10;;
22007;SDS011;11168;56.976;24.168;2023-06-22T04:03:20;18.80;;;16.90;;
22007;SDS011;11168;56.976;24.168;2023-06-22T04:05:47;21.98;;;17.50;;
22007;SDS011;11168;56.976;24.168;2023-06-22T04:08:15;18.75;;;16.95;;
22007;SDS011;11168;56.976;24.168;2023-06-22T04:10:42;19.58;;;17.48;;
22007;SDS011;11168;56.976;24.168;2023-06-22T04:13:09;22.48;;;17.85;;
22007;SDS011;11168;56.976;24.168;2023-06-22T04:15:36;24.02;;;17.05;;
22007;SDS011;11168;56.976;24.168;2023-06-22T04:18:03;21.60;;;17.88;;
22007;SDS011;11168;56.976;24.168;2023-06-22T04:20:31;20.60;;;17.67;;
22007;SDS011;11168;56.976;24.168;2023-06-22T04:23:00;19.60;;;17.50;;
22007;SDS011;11168;56.976;24.168;2023-06-22T04:25:27;20.92;;;17.40;;
22007;SDS011;11168;56.976;24.168;2023-06-22T04:27:54;27.30;;;18.25;;
22007;SDS011;11168;56.976;24.168;2023-06-22T04:30:21;20.90;;;16.90;;
22007;SDS011;11168;56.976;24.168;2023-06-22T04:32:48;23.20;;;17.58;;
22007;SDS011;11168;56.976;24.168;2023-06-22T04:35:24;21.02;;;17.45;;
22007;SDS011;11168;56.976;24.168;2023-06-22T04:37:52;25.27;;;17.52;;
22007;SDS011;11168;56.976;24.168;2023-06-22T04:40:24;21.38;;;17.88;;
22007;SDS011;11168;56.976;24.168;2023-06-22T04:42:52;21.40;;;17.67;;
22007;SDS011;11168;56.976;24.168;2023-06-22T04:45:20;19.30;;;17.33;;
22007;SDS011;11168;56.976;24.168;2023-06-22T04:47:47;20.00;;;17.73;;
22007;SDS011;11168;56.976;24.168;2023-06-22T04:50:15;24.35;;;19.63;;
22007;SDS011;11168;56.976;24.168;2023-06-22T04:52:43;20.77;;;18.25;;
22007;SDS011;11168;56.976;24.168;2023-06-22T04:55:12;21.60;;;18.63;;
22007;SDS011;11168;56.976;24.168;2023-06-22T04:57:40;24.55;;;19.38;;
22007;SDS011;11168;56.976;24.168;2023-06-22T05:00:11;23.08;;;20.55;;
22007;SDS011;11168;56.976;24.168;2023-06-22T05:02:39;21.80;;;19.48;;
22007;SDS011;11168;56.976;24.168;2023-06-22T05:05:07;23.08;;;20.48;;
22007;SDS011;11168;56.976;24.168;2023-06-22T05:07:35;23.08;;;20.73;;
22007;SDS011;11168;56.976;24.168;2023-06-22T05:10:03;22.67;;;20.23;;
22007;SDS011;11168;56.976;24.168;2023-06-22T05:12:30;24.65;;;20.83;;
22007;SDS011;11168;56.976;24.168;2023-06-22T05:14:57;23.23;;;20.95;;
22007;SDS011;11168;56.976;24.168;2023-06-22T05:17:24;24.65;;;22.08;;
22007;SDS011;11168;56.976;24.168;2023-06-22T05:19:52;25.25;;;22.73;;
22007;SDS011;11168;56.976;24.168;2023-06-22T05:22:19;25.92;;;23.08;;
22007;SDS011;11168;56.976;24.168;2023-06-22T05:24:46;24.88;;;22.45;;
22007;SDS011;11168;56.976;24.168;2023-06-22T05:27:13;26.90;;;23.63;;
22007;SDS011;11168;56.976;24.168;2023-06-22T05:29:40;28.30;;;24.45;;
22007;SDS011;11168;56.976;24.168;2023-06-22T05:32:09;27.98;;;23.77;;
22007;SDS011;11168;56.976;24.168;2023-06-22T05:34:36;27.02;;;24.15;;
22007;SDS011;11168;56.976;24.168;2023-06-22T05:37:03;26.85;;;23.70;;
22007;SDS011;11168;56.976;24.168;2023-06-22T05:39:30;27.23;;;24.40;;
22007;SDS011;11168;56.976;24.168;2023-06-22T05:41:58;27.55;;;24.70;;
22007;SDS011;11168;56.976;24.168;2023-06-22T05:44:24;28.60;;;25.60;;
22007;SDS011;11168;56.976;24.168;2023-06-22T05:46:52;30.98;;;27.75;;
22007;SDS011;11168;56.976;24.168;2023-06-22T05:49:18;31.90;;;26.80;;
22007;SDS011;11168;56.976;24.168;2023-06-22T05:51:48;30.38;;;27.35;;
22007;SDS011;11168;56.976;24.168;2023-06-22T05:54:15;30.55;;;27.35;;
22007;SDS011;11168;56.976;24.168;2023-06-22T05:56:44;33.78;;;30.10;;
22007;SDS011;11168;56.976;24.168;2023-06-22T05:59:11;33.28;;;29.52;;
22007;SDS011;11168;56.976;24.168;2023-06-22T06:01:38;34.20;;;30.27;;
22007;SDS011;11168;56.976;24.168;2023-06-22T06:04:06;34.78;;;30.88;;
22007;SDS011;11168;56.976;24.168;2023-06-22T06:06:34;37.88;;;32.05;;
22007;SDS011;11168;56.976;24.168;2023-06-22T06:09:04;38.97;;;33.22;;
22007;SDS011;11168;56.976;24.168;2023-06-22T06:11:31;38.42;;;34.17;;
22007;SDS011;11168;56.976;24.168;2023-06-22T06:13:58;41.67;;;34.17;;
22007;SDS011;11168;56.976;24.168;2023-06-22T06:16:25;40.13;;;32.97;;
22007;SDS011;11168;56.976;24.168;2023-06-22T06:18:52;45.03;;;35.92;;
22007;SDS011;11168;56.976;24.168;2023-06-22T06:21:22;44.13;;;36.50;;
22007;SDS011;11168;56.976;24.168;2023-06-22T06:23:49;43.67;;;36.35;;
22007;SDS011;11168;56.976;24.168;2023-06-22T06:26:16;43.35;;;37.35;;
22007;SDS011;11168;56.976;24.168;2023-06-22T06:28:43;46.00;;;37.33;;
22007;SDS011;11168;56.976;24.168;2023-06-22T06:31:10;44.45;;;37.17;;
22007;SDS011;11168;56.976;24.168;2023-06-22T06:33:38;40.50;;;36.17;;
22007;SDS011;11168;56.976;24.168;2023-06-22T06:36:05;37.45;;;32.60;;
22007;SDS011;11168;56.976;24.168;2023-06-22T06:38:34;35.47;;;31.63;;
22007;SDS011;11168;56.976;24.168;2023-06-22T06:41:01;35.58;;;29.33;;
22007;SDS011;11168;56.976;24.168;2023-06-22T06:43:28;33.40;;;29.42;;
22007;SDS011;11168;56.976;24.168;2023-06-22T06:45:55;33.83;;;30.25;;
22007;SDS011;11168;56.976;24.168;2023-06-22T06:48:22;36.58;;;30.95;;
22007;SDS011;11168;56.976;24.168;2023-06-22T06:50:50;39.08;;;33.05;;
22007;SDS011;11168;56.976;24.168;2023-06-22T06:53:17;35.55;;;31.25;;
22007;SDS011;11168;56.976;24.168;2023-06-22T06:55:44;32.17;;;28.58;;
22007;SDS011;11168;56.976;24.168;2023-06-22T06:58:12;32.63;;;29.05;;
22007;SDS011;11168;56.976;24.168;2023-06-22T07:00:39;33.22;;;29.67;;
22007;SDS011;11168;56.976;24.168;2023-06-22T07:03:06;32.78;;;29.35;;
22007;SDS011;11168;56.976;24.168;2023-06-22T07:05:36;33.13;;;29.50;;
22007;SDS011;11168;56.976;24.168;2023-06-22T07:08:03;32.30;;;28.75;;
22007;SDS011;11168;56.976;24.168;2023-06-22T07:10:30;29.35;;;26.35;;
22007;SDS011;11168;56.976;24.168;2023-06-22T07:12:58;30.67;;;27.50;;
22007;SDS011;11168;56.976;24.168;2023-06-22T07:15:25;32.15;;;28.75;;
22007;SDS011;11168;56.976;24.168;2023-06-22T07:17:52;30.48;;;27.27;;
22007;SDS011;11168;56.976;24.168;2023-06-22T07:20:19;30.95;;;26.17;;
22007;SDS011;11168;56.976;24.168;2023-06-22T07:22:46;31.00;;;27.55;;
22007;SDS011;11168;56.976;24.168;2023-06-22T07:25:13;30.40;;;27.10;;
22007;SDS011;11168;56.976;24.168;2023-06-22T07:27:45;32.70;;;28.98;;
22007;SDS011;11168;56.976;24.168;2023-06-22T07:30:22;38.13;;;30.85;;
22007;SDS011;11168;56.976;24.168;2023-06-22T07:32:49;34.35;;;30.60;;
22007;SDS011;11168;56.976;24.168;2023-06-22T07:35:17;36.30;;;32.22;;
22007;SDS011;11168;56.976;24.168;2023-06-22T07:37:44;39.92;;;33.65;;
22007;SDS011;11168;56.976;24.168;2023-06-22T07:40:11;38.58;;;34.35;;
22007;SDS011;11168;56.976;24.168;2023-06-22T07:42:38;34.28;;;30.73;;
22007;SDS011;11168;56.976;24.168;2023-06-22T07:45:06;39.55;;;34.67;;
22007;SDS011;11168;56.976;24.168;2023-06-22T07:47:34;36.88;;;32.70;;
22007;SDS011;11168;56.976;24.168;2023-06-22T07:50:02;32.97;;;29.60;;
22007;SDS011;11168;56.976;24.168;2023-06-22T07:52:30;34.08;;;29.35;;
22007;SDS011;11168;56.976;24.168;2023-06-22T07:54:58;31.17;;;27.92;;
22007;SDS011;11168;56.976;24.168;2023-06-22T07:57:25;29.90;;;26.70;;
22007;SDS011;11168;56.976;24.168;2023-06-22T08:00:00;29.75;;;26.63;;
22007;SDS011;11168;56.976;24.168;2023-06-22T08:02:30;34.27;;;27.23;;
22007;SDS011;11168;56.976;24.168;2023-06-22T08:04:57;30.30;;;27.13;;
22007;SDS011;11168;56.976;24.168;2023-06-22T08:07:41;31.50;;;27.90;;
22007;SDS011;11168;56.976;24.168;2023-06-22T08:10:12;32.92;;;29.38;;
22007;SDS011;11168;56.976;24.168;2023-06-22T08:12:40;33.88;;;30.30;;
22007;SDS011;11168;56.976;24.168;2023-06-22T08:15:07;37.53;;;31.75;;
22007;SDS011;11168;56.976;24.168;2023-06-22T08:17:36;35.60;;;31.80;;
22007;SDS011;11168;56.976;24.168;2023-06-22T08:20:07;36.47;;;32.58;;
22007;SDS011;11168;56.976;24.168;2023-06-22T08:22:39;40.72;;;31.75;;
22007;SDS011;11168;56.976;24.168;2023-06-22T08:25:10;38.20;;;31.48;;
22007;SDS011;11168;56.976;24.168;2023-06-22T08:27:37;36.97;;;32.58;;
22007;SDS011;11168;56.976;24.168;2023-06-22T08:30:04;37.20;;;32.35;;
22007;SDS011;11168;56.976;24.168;2023-06-22T08:32:32;36.13;;;31.10;;
22007;SDS011;11168;56.976;24.168;2023-06-22T08:35:00;35.83;;;31.90;;
22007;SDS011;11168;56.976;24.168;2023-06-22T08:37:27;41.17;;;32.58;;
22007;SDS011;11168;56.976;24.168;2023-06-22T08:40:05;37.50;;;31.67;;
22007;SDS011;11168;56.976;24.168;2023-06-22T08:42:35;41.50;;;32.83;;
22007;SDS011;11168;56.976;24.168;2023-06-22T08:45:03;33.72;;;30.13;;
22007;SDS011;11168;56.976;24.168;2023-06-22T08:47:30;39.15;;;31.52;;
22007;SDS011;11168;56.976;24.168;2023-06-22T08:49:57;35.40;;;31.30;;
22007;SDS011;11168;56.976;24.168;2023-06-22T08:52:24;35.45;;;31.63;;
22007;SDS011;11168;56.976;24.168;2023-06-22T08:54:52;38.88;;;32.85;;
22007;SDS011;11168;56.976;24.168;2023-06-22T08:57:20;37.60;;;32.50;;
22007;SDS011;11168;56.976;24.168;2023-06-22T08:59:47;37.03;;;32.40;;
22007;SDS011;11168;56.976;24.168;2023-06-22T09:02:15;40.58;;;33.90;;
22007;SDS011;11168;56.976;24.168;2023-06-22T09:04:43;39.80;;;34.03;;
22007;SDS011;11168;56.976;24.168;2023-06-22T09:07:10;41.40;;;33.40;;
22007;SDS011;11168;56.976;24.168;2023-06-22T09:09:38;40.17;;;34.03;;
22007;SDS011;11168;56.976;24.168;2023-06-22T09:12:05;40.30;;;34.22;;
22007;SDS011;11168;56.976;24.168;2023-06-22T09:14:32;38.88;;;32.70;;
22007;SDS011;11168;56.976;24.168;2023-06-22T09:16:59;36.63;;;32.65;;
22007;SDS011;11168;56.976;24.168;2023-06-22T09:19:26;39.15;;;32.03;;
22007;SDS011;11168;56.976;24.168;2023-06-22T09:21:53;36.92;;;32.13;;
22007;SDS011;11168;56.976;24.168;2023-06-22T09:24:21;37.60;;;31.02;;
22007;SDS011;11168;56.976;24.168;2023-06-22T09:26:48;37.30;;;31.33;;
22007;SDS011;11168;56.976;24.168;2023-06-22T09:29:15;38.38;;;32.83;;
22007;SDS011;11168;56.976;24.168;2023-06-22T09:31:42;34.83;;;31.00;;
22007;SDS011;11168;56.976;24.168;2023-06-22T09:34:09;35.95;;;31.73;;
22007;SDS011;11168;56.976;24.168;2023-06-22T09:36:36;37.25;;;31.83;;
22007;SDS011;11168;56.976;24.168;2023-06-22T09:39:03;37.70;;;31.63;;
22007;SDS011;11168;56.976;24.168;2023-06-22T09:41:32;37.10;;;32.58;;
22007;SDS011;11168;56.976;24.168;2023-06-22T09:43:59;35.70;;;31.90;;
22007;SDS011;11168;56.976;24.168;2023-06-22T09:46:26;36.70;;;32.78;;
22007;SDS011;11168;56.976;24.168;2023-06-22T09:48:54;37.35;;;31.80;;
22007;SDS011;11168;56.976;24.168;2023-06-22T09:51:21;35.97;;;32.03;;
22007;SDS011;11168;56.976;24.168;2023-06-22T09:53:50;36.83;;;32.67;;
22007;SDS011;11168;56.976;24.168;2023-06-22T09:56:18;36.38;;;31.92;;
22007;SDS011;11168;56.976;24.168;2023-06-22T09:58:46;36.97;;;32.88;;
22007;SDS011;11168;56.976;24.168;2023-06-22T10:01:14;39.33;;;32.83;;
22007;SDS011;11168;56.976;24.168;2023-06-22T10:03:41;37.88;;;33.55;;
22007;SDS011;11168;56.976;24.168;2023-06-22T10:06:09;37.67;;;33.28;;
22007;SDS011;11168;56.976;24.168;2023-06-22T10:08:36;38.00;;;33.13;;
22007;SDS011;11168;56.976;24.168;2023-06-22T10:11:04;37.55;;;33.47;;
22007;SDS011;11168;56.976;24.168;2023-06-22T10:13:32;40.38;;;34.30;;
22007;SDS011;11168;56.976;24.168;2023-06-22T10:15:59;38.03;;;33.53;;
22007;SDS011;11168;56.976;24.168;2023-06-22T10:18:26;40.88;;;34.10;;
22007;SDS011;11168;56.976;24.168;2023-06-22T10:20:54;38.90;;;33.75;;
22007;SDS011;11168;56.976;24.168;2023-06-22T10:23:21;37.03;;;33.05;;
22007;SDS011;11168;56.976;24.168;2023-06-22T10:25:49;37.85;;;33.55;;
22007;SDS011;11168;56.976;24.168;2023-06-22T10:28:16;38.25;;;33.25;;
22007;SDS011;11168;56.976;24.168;2023-06-22T10:30:43;36.88;;;32.17;;
22007;SDS011;11168;56.976;24.168;2023-06-22T10:33:11;37.78;;;32.03;;
22007;SDS011;11168;56.976;24.168;2023-06-22T10:35:39;37.70;;;32.33;;
22007;SDS011;11168;56.976;24.168;2023-06-22T10:38:06;37.30;;;32.05;;
22007;SDS011;11168;56.976;24.168;2023-06-22T10:40:34;35.78;;;31.98;;
22007;SDS011;11168;56.976;24.168;2023-06-22T10:43:02;38.90;;;31.85;;
22007;SDS011;11168;56.976;24.168;2023-06-22T10:45:29;36.55;;;32.58;;
22007;SDS011;11168;56.976;24.168;2023-06-22T10:47:57;37.47;;;31.70;;
22007;SDS011;11168;56.976;24.168;2023-06-22T10:50:25;37.97;;;31.92;;
22007;SDS011;11168;56.976;24.168;2023-06-22T10:52:53;33.85;;;30.38;;
22007;SDS011;11168;56.976;24.168;2023-06-22T10:55:24;35.65;;;31.30;;
22007;SDS011;11168;56.976;24.168;2023-06-22T10:57:52;33.45;;;29.80;;
22007;SDS011;11168;56.976;24.168;2023-06-22T11:00:19;36.50;;;30.50;;
22007;SDS011;11168;56.976;24.168;2023-06-22T11:02:47;34.75;;;29.05;;
22007;SDS011;11168;56.976;24.168;2023-06-22T11:05:15;32.45;;;29.05;;
22007;SDS011;11168;56.976;24.168;2023-06-22T11:07:43;32.88;;;29.15;;
22007;SDS011;11168;56.976;24.168;2023-06-22T11:10:12;32.83;;;29.35;;
22007;SDS011;11168;56.976;24.168;2023-06-22T11:12:40;32.75;;;29.35;;
22007;SDS011;11168;56.976;24.168;2023-06-22T11:15:09;33.30;;;29.88;;
22007;SDS011;11168;56.976;24.168;2023-06-22T11:17:36;33.42;;;29.83;;
22007;SDS011;11168;56.976;24.168;2023-06-22T11:20:04;32.20;;;28.85;;
22007;SDS011;11168;56.976;24.168;2023-06-22T11:22:38;33.15;;;29.58;;
22007;SDS011;11168;56.976;24.168;2023-06-22T11:25:06;34.10;;;27.75;;
22007;SDS011;11168;56.976;24.168;2023-06-22T11:27:34;32.92;;;28.50;;
22007;SDS011;11168;56.976;24.168;2023-06-22T11:30:01;31.52;;;28.00;;
22007;SDS011;11168;56.976;24.168;2023-06-22T11:32:29;33.17;;;29.35;;
22007;SDS011;11168;56.976;24.168;2023-06-22T11:34:56;33.20;;;29.60;;
22007;SDS011;11168;56.976;24.168;2023-06-22T11:37:24;33.05;;;29.55;;
22007;SDS011;11168;56.976;24.168;2023-06-22T11:39:51;32.72;;;29.08;;
22007;SDS011;11168;56.976;24.168;2023-06-22T11:42:32;34.03;;;29.15;;
22007;SDS011;11168;56.976;24.168;2023-06-22T11:45:00;31.50;;;27.50;;
22007;SDS011;11168;56.976;24.168;2023-06-22T11:47:28;33.80;;;28.60;;
22007;SDS011;11168;56.976;24.168;2023-06-22T11:49:56;32.15;;;28.63;;
22007;SDS011;11168;56.976;24.168;2023-06-22T11:52:23;29.70;;;26.67;;
22007;SDS011;11168;56.976;24.168;2023-06-22T11:54:50;30.73;;;27.38;;
22007;SDS011;11168;56.976;24.168;2023-06-22T11:57:18;31.77;;;26.75;;
22007;SDS011;11168;56.976;24.168;2023-06-22T11:59:45;31.23;;;27.58;;
22007;SDS011;11168;56.976;24.168;2023-06-22T12:02:12;29.63;;;26.45;;
22007;SDS011;11168;56.976;24.168;2023-06-22T12:04:40;29.20;;;26.10;;
22007;SDS011;11168;56.976;24.168;2023-06-22T12:07:07;27.15;;;24.25;;
22007;SDS011;11168;56.976;24.168;2023-06-22T12:09:35;30.20;;;24.02;;
22007;SDS011;11168;56.976;24.168;2023-06-22T12:12:02;28.90;;;24.38;;
22007;SDS011;11168;56.976;24.168;2023-06-22T12:14:32;29.00;;;24.80;;
22007;SDS011;11168;56.976;24.168;2023-06-22T12:17:00;27.17;;;23.73;;
22007;SDS011;11168;56.976;24.168;2023-06-22T12:19:27;30.55;;;23.80;;
22007;SDS011;11168;56.976;24.168;2023-06-22T12:21:54;30.00;;;23.75;;
22007;SDS011;11168;56.976;24.168;2023-06-22T12:24:22;26.83;;;23.05;;
22007;SDS011;11168;56.976;24.168;2023-06-22T12:26:49;25.42;;;22.45;;
22007;SDS011;11168;56.976;24.168;2023-06-22T12:29:18;26.13;;;22.17;;
22007;SDS011;11168;56.976;24.168;2023-06-22T12:31:45;27.45;;;22.73;;
22007;SDS011;11168;56.976;24.168;2023-06-22T12:34:13;25.55;;;22.27;;
22007;SDS011;11168;56.976;24.168;2023-06-22T12:36:40;25.90;;;22.85;;
22007;SDS011;11168;56.976;24.168;2023-06-22T12:39:08;27.55;;;22.20;;
22007;SDS011;11168;56.976;24.168;2023-06-22T12:41:35;25.05;;;21.83;;
22007;SDS011;11168;56.976;24.168;2023-06-22T12:44:02;25.27;;;22.65;;
22007;SDS011;11168;56.976;24.168;2023-06-22T12:46:30;23.30;;;20.85;;
22007;SDS011;11168;56.976;24.168;2023-06-22T12:49:04;27.67;;;22.15;;
22007;SDS011;11168;56.976;24.168;2023-06-22T12:51:31;25.02;;;21.10;;
22007;SDS011;11168;56.976;24.168;2023-06-22T12:53:58;25.38;;;22.27;;
22007;SDS011;11168;56.976;24.168;2023-06-22T12:56:25;23.80;;;21.40;;
22007;SDS011;11168;56.976;24.168;2023-06-22T12:58:52;23.38;;;20.90;;
22007;SDS011;11168;56.976;24.168;2023-06-22T13:01:19;23.42;;;20.92;;
22007;SDS011;11168;56.976;24.168;2023-06-22T13:03:46;22.98;;;20.60;;
22007;SDS011;11168;56.976;24.168;2023-06-22T13:06:13;23.65;;;19.95;;
22007;SDS011;11168;56.976;24.168;2023-06-22T13:08:40;22.88;;;19.70;;
22007;SDS011;11168;56.976;24.168;2023-06-22T13:11:10;21.88;;;19.60;;
22007;SDS011;11168;56.976;24.168;2023-06-22T13:13:38;22.48;;;19.88;;
22007;SDS011;11168;56.976;24.168;2023-06-22T13:16:05;21.95;;;19.65;;
22007;SDS011;11168;56.976;24.168;2023-06-22T13:18:33;21.80;;;19.60;;
22007;SDS011;11168;56.976;24.168;2023-06-22T13:21:02;21.10;;;18.92;;
22007;SDS011;11168;56.976;24.168;2023-06-22T13:23:30;22.55;;;20.20;;
22007;SDS011;11168;56.976;24.168;2023-06-22T13:25:57;21.45;;;18.80;;
22007;SDS011;11168;56.976;24.168;2023-06-22T13:28:25;21.27;;;18.65;;
22007;SDS011;11168;56.976;24.168;2023-06-22T13:30:54;20.85;;;18.65;;
22007;SDS011;11168;56.976;24.168;2023-06-22T13:33:21;20.25;;;18.17;;
22007;SDS011;11168;56.976;24.168;2023-06-22T13:35:48;20.77;;;18.00;;
22007;SDS011;11168;56.976;24.168;2023-06-22T13:38:15;20.20;;;18.05;;
22007;SDS011;11168;56.976;24.168;2023-06-22T13:40:43;19.35;;;17.45;;
22007;SDS011;11168;56.976;24.168;2023-06-22T13:43:11;18.75;;;16.85;;
22007;SDS011;11168;56.976;24.168;2023-06-22T13:45:38;19.90;;;17.90;;
22007;SDS011;11168;56.976;24.168;2023-06-22T13:48:13;19.17;;;17.15;;
22007;SDS011;11168;56.976;24.168;2023-06-22T13:50:51;16.92;;;15.15;;
22007;SDS011;11168;56.976;24.168;2023-06-22T13:53:27;17.95;;;16.15;;
22007;SDS011;11168;56.976;24.168;2023-06-22T13:56:26;15.63;;;13.93;;
22007;SDS011;11168;56.976;24.168;2023-06-22T13:59:11;15.95;;;14.27;;
22007;SDS011;11168;56.976;24.168;2023-06-22T14:01:55;16.70;;;14.98;;
22007;SDS011;11168;56.976;24.168;2023-06-22T14:04:29;18.52;;;15.40;;
22007;SDS011;11168;56.976;24.168;2023-06-22T14:07:17;20.05;;;18.05;;
22007;SDS011;11168;56.976;24.168;2023-06-22T14:09:51;20.90;;;18.33;;
22007;SDS011;11168;56.976;24.168;2023-06-22T14:12:19;21.77;;;19.45;;
22007;SDS011;11168;56.976;24.168;2023-06-22T14:14:53;21.02;;;18.83;;
22007;SDS011;11168;56.976;24.168;2023-06-22T14:17:28;21.00;;;18.83;;
22007;SDS011;11168;56.976;24.168;2023-06-22T14:20:06;22.67;;;17.92;;
22007;SDS011;11168;56.976;24.168;2023-06-22T14:22:43;19.70;;;17.70;;
22007;SDS011;11168;56.976;24.168;2023-06-22T14:25:13;21.00;;;18.80;;
22007;SDS011;11168;56.976;24.168;2023-06-22T14:27:40;20.75;;;18.65;;
22007;SDS011;11168;56.976;24.168;2023-06-22T14:30:07;19.80;;;17.77;;
22007;SDS011;11168;56.976;24.168;2023-06-22T14:32:35;20.98;;;17.17;;